Time;durP1;ratioP1;P1;durP2;ratioP2;P2;SDS_P1;SDS_P2;PMS_P1;PMS_P2;Temp;Humidity;BMP_temperature;BMP_pressure;BME280_temperature;BME280_humidity;BME280_pressure;Samples;Min_cycle;Max_cycle;Signal;HPM_P1;HPM_P2
2023/10/09 00:02:53;;;;;;;34.58;12.02;;;;;;;12.02;100.00;101673.63;5061401;28;20036;-73
2023/10/09 00:05:23;;;;;;;46.75;13.13;;;;;;;12.08;100.00;101672.94;5075036;28;20020;-73
2023/10/09 00:07:49;;;;;;;59.05;14.43;;;;;;;12.15;100.00;101667.75;5059294;28;20494;-73
2023/10/09 00:10:16;;;;;;;88.88;14.98;;;;;;;12.14;100.00;101657.97;5058836;28;20040;-73
2023/10/09 00:12:43;;;;;;;150.52;20.25;;;;;;;12.18;100.00;101655.81;5058619;28;20029;-73
2023/10/09 00:15:12;;;;;;;82.28;15.63;;;;;;;12.16;100.00;101655.97;5058929;28;20486;-73
2023/10/09 00:17:39;;;;;;;72.63;16.33;;;;;;;12.19;100.00;101666.41;5075083;28;20055;-73
2023/10/09 00:20:08;;;;;;;87.25;16.42;;;;;;;12.23;100.00;101670.47;5041870;28;20028;-73
2023/10/09 00:22:38;;;;;;;92.88;15.32;;;;;;;12.30;100.00;101678.75;5058761;28;20479;-73
2023/10/09 00:25:21;;;;;;;60.58;14.60;;;;;;;12.35;100.00;101670.16;5074959;28;20103;-73
2023/10/09 00:27:47;;;;;;;77.32;14.80;;;;;;;12.36;100.00;101661.91;5075071;28;20055;-73
2023/10/09 00:30:18;;;;;;;56.95;13.40;;;;;;;12.40;100.00;101657.03;5058501;28;20028;-73
2023/10/09 00:33:03;;;;;;;69.65;14.43;;;;;;;12.42;100.00;101660.41;5058772;28;20036;-73
2023/10/09 00:40:56;;;;;;;73.20;14.75;;;;;;;12.61;100.00;101667.34;5074506;28;20025;-73
2023/10/09 00:43:28;;;;;;;60.88;13.52;;;;;;;12.64;100.00;101662.44;5045695;28;20107;-73
2023/10/09 00:45:54;;;;;;;98.32;15.63;;;;;;;12.67;100.00;101659.41;5059266;28;20523;-74
2023/10/09 00:48:31;;;;;;;93.18;15.60;;;;;;;12.71;100.00;101660.78;5057461;28;20123;-73
2023/10/09 00:51:00;;;;;;;80.20;14.50;;;;;;;12.74;100.00;101654.19;5059544;28;20086;-73
2023/10/09 00:53:33;;;;;;;142.75;18.85;;;;;;;12.74;100.00;101640.72;5041666;28;20483;-73
2023/10/09 00:56:28;;;;;;;162.90;19.65;;;;;;;12.73;100.00;101641.72;5058466;28;20075;-73
2023/10/09 00:59:08;;;;;;;132.77;18.08;;;;;;;12.72;100.00;101634.63;5061456;28;20059;-73
2023/10/09 01:01:36;;;;;;;66.15;14.43;;;;;;;12.72;100.00;101642.72;5042834;28;20082;-74
2023/10/09 01:04:15;;;;;;;68.00;14.93;;;;;;;12.75;100.00;101637.84;5041392;28;20067;-73
2023/10/09 01:06:44;;;;;;;156.13;19.77;;;;;;;12.75;100.00;101640.56;5059021;28;20032;-74
2023/10/09 01:09:14;;;;;;;126.50;16.92;;;;;;;12.76;100.00;101641.38;5041112;28;20471;-74
2023/10/09 01:12:03;;;;;;;111.93;16.23;;;;;;;12.81;100.00;101632.75;5041028;28;20109;-73
2023/10/09 01:14:36;;;;;;;97.95;15.00;;;;;;;12.81;100.00;101639.03;5043575;28;20037;-74
2023/10/09 01:17:08;;;;;;;87.45;13.30;;;;;;;12.85;100.00;101645.75;5041368;28;20032;-73
2023/10/09 01:19:34;;;;;;;122.05;18.42;;;;;;;12.83;100.00;101646.94;5057841;28;20040;-73
2023/10/09 01:22:21;;;;;;;166.05;17.27;;;;;;;12.79;100.00;101632.94;5056956;28;20091;-73
2023/10/09 01:24:49;;;;;;;131.50;16.33;;;;;;;12.77;100.00;101622.31;5059986;28;20102;-73
2023/10/09 01:27:32;;;;;;;79.68;13.70;;;;;;;12.63;100.00;101620.31;5073173;28;20042;-73
2023/10/09 01:29:59;;;;;;;90.32;15.80;;;;;;;12.52;100.00;101623.34;5056638;28;20037;-73
2023/10/09 01:32:26;;;;;;;91.35;14.10;;;;;;;12.42;100.00;101631.56;5057382;28;20028;-73
2023/10/09 01:35:21;;;;;;;126.63;15.63;;;;;;;12.37;100.00;101636.63;5073108;28;20391;-73
2023/10/09 01:37:59;;;;;;;90.85;14.50;;;;;;;12.26;100.00;101634.25;5074234;28;20107;-73
2023/10/09 01:40:27;;;;;;;87.13;14.57;;;;;;;12.23;100.00;101634.59;5073416;28;20033;-73
2023/10/09 01:42:52;;;;;;;132.52;17.55;;;;;;;12.15;100.00;101630.03;5073606;28;20153;-73
2023/10/09 01:48:05;;;;;;;110.28;14.63;;;;;;;12.04;100.00;101623.09;5072563;28;20029;-73
2023/10/09 01:50:31;;;;;;;85.00;12.68;;;;;;;12.05;100.00;101637.41;5059332;28;20044;-73
2023/10/09 01:53:00;;;;;;;86.82;14.85;;;;;;;12.03;100.00;101631.31;5072989;28;20020;-74
2023/10/09 01:55:45;;;;;;;78.18;13.43;;;;;;;12.04;100.00;101622.22;5044665;28;20064;-73
2023/10/09 02:00:48;;;;;;;64.75;12.70;;;;;;;12.09;100.00;101622.56;5073207;28;20082;-73
2023/10/09 02:03:36;;;;;;;49.45;11.45;;;;;;;12.08;100.00;101620.91;5058034;28;20090;-73
2023/10/09 02:06:17;;;;;;;;;;;;;;;12.15;100.00;101611.16;5041559;28;20486;-73
2023/10/09 02:08:49;;;;;;;85.45;12.77;;;;;;;12.17;100.00;101606.44;5058630;28;19934;-73
2023/10/09 02:11:24;;;;;;;93.28;13.48;;;;;;;12.21;100.00;101607.78;5072714;28;20455;-73
2023/10/09 02:14:06;;;;;;;126.05;15.77;;;;;;;12.23;100.00;101600.38;5057843;28;20036;-73
2023/10/09 02:16:41;;;;;;;101.57;14.02;;;;;;;12.19;100.00;101592.78;5041814;28;20036;-73
2023/10/09 02:19:30;;;;;;;96.03;12.80;;;;;;;12.15;100.00;101588.75;5072060;28;20113;-73
2023/10/09 02:22:01;;;;;;;99.40;13.68;;;;;;;12.14;100.00;101587.88;5055192;28;20044;-73
2023/10/09 02:24:28;;;;;;;70.97;13.02;;;;;;;12.16;100.00;101576.94;5073095;28;20032;-74
2023/10/09 02:29:23;;;;;;;97.68;13.38;;;;;;;12.25;100.00;101562.44;5072119;28;20025;-73
2023/10/09 02:31:55;;;;;;;60.00;12.27;;;;;;;12.27;100.00;101555.88;5055834;28;20028;-74
2023/10/09 02:34:38;;;;;;;70.80;11.60;;;;;;;12.30;100.00;101566.34;5071227;28;20521;-73
2023/10/09 02:37:12;;;;;;;89.03;13.18;;;;;;;12.34;100.00;101580.34;5071380;28;20025;-75
2023/10/09 02:39:48;;;;;;;105.88;13.60;;;;;;;12.39;100.00;101596.84;5056060;28;20025;-73
2023/10/09 02:44:46;;;;;;;170.88;16.27;;;;;;;12.49;100.00;101580.50;5055060;28;20369;-73
2023/10/09 02:47:18;;;;;;;93.97;13.95;;;;;;;12.40;100.00;101593.13;5039545;28;20032;-74
2023/10/09 02:49:43;;;;;;;91.88;12.98;;;;;;;12.35;100.00;101603.56;5071793;28;20036;-73
2023/10/09 02:52:17;;;;;;;104.82;13.98;;;;;;;12.32;100.00;101615.53;5038560;28;20028;-73
2023/10/09 02:54:46;;;;;;;73.05;12.43;;;;;;;12.31;100.00;101616.56;5039557;28;20044;-73
2023/10/09 02:57:16;;;;;;;104.45;13.45;;;;;;;12.30;100.00;101614.88;5071220;28;20029;-73
2023/10/09 02:59:41;;;;;;;68.32;11.95;;;;;;;12.24;100.00;101612.00;5054190;28;20443;-74
2023/10/09 03:02:07;;;;;;;100.75;13.25;;;;;;;12.13;100.00;101610.47;5071352;28;20067;-73
2023/10/09 03:04:33;;;;;;;80.40;13.00;;;;;;;12.11;100.00;101612.47;5071286;28;20028;-74
2023/10/09 03:07:03;;;;;;;70.43;12.63;;;;;;;12.07;100.00;101630.84;5038458;28;20048;-74
2023/10/09 03:09:29;;;;;;;84.68;13.02;;;;;;;12.01;100.00;101611.78;5071370;28;20029;-73
2023/10/09 03:12:02;;;;;;;51.92;10.73;;;;;;;11.85;100.00;101610.69;5054555;28;20047;-73
2023/10/09 03:14:32;;;;;;;77.70;12.27;;;;;;;11.83;100.00;101614.56;5055350;28;20032;-73
2023/10/09 03:16:58;;;;;;;67.70;12.30;;;;;;;11.71;100.00;101597.00;5028605;28;1218163;-74
2023/10/09 03:19:28;;;;;;;51.03;11.30;;;;;;;11.62;100.00;101590.75;5055494;28;20387;-74
2023/10/09 03:21:57;;;;;;;55.17;13.32;;;;;;;11.48;100.00;101597.56;5038901;28;20118;-73
2023/10/09 03:24:24;;;;;;;55.10;11.25;;;;;;;11.47;100.00;101595.06;5071887;28;20032;-73
2023/10/09 03:26:50;;;;;;;63.40;12.45;;;;;;;11.50;100.00;101594.72;5038953;28;20095;-74
2023/10/09 03:29:19;;;;;;;165.43;16.02;;;;;;;11.50;100.00;101587.47;5071780;28;20056;-73
2023/10/09 03:31:51;;;;;;;146.40;16.58;;;;;;;11.42;100.00;101585.59;5057014;28;20123;-73
2023/10/09 03:34:18;;;;;;;74.55;12.30;;;;;;;11.37;100.00;101579.84;5072757;28;20103;-73
2023/10/09 03:36:45;;;;;;;74.03;11.52;;;;;;;11.36;100.00;101591.63;5072003;28;20025;-73
2023/10/09 03:41:58;;;;;;;115.45;13.57;;;;;;;11.40;100.00;101566.06;5057808;28;20033;-73
2023/10/09 03:44:28;;;;;;;113.95;15.18;;;;;;;11.41;100.00;101567.75;5038923;28;20037;-73
2023/10/09 03:46:53;;;;;;;92.53;13.18;;;;;;;11.40;100.00;101563.34;5039304;28;20114;-73
2023/10/09 03:49:23;;;;;;;81.80;12.65;;;;;;;11.49;100.00;101564.25;5071900;28;20075;-73
2023/10/09 03:51:50;;;;;;;110.57;14.05;;;;;;;11.58;100.00;101570.50;5055926;28;20031;-73
2023/10/09 03:54:20;;;;;;;77.60;12.38;;;;;;;11.65;100.00;101566.16;5038715;28;20467;-74
2023/10/09 03:56:58;;;;;;;71.75;11.18;;;;;;;11.61;100.00;101559.41;5055599;28;20043;-74
2023/10/09 03:59:30;;;;;;;60.13;11.23;;;;;;;11.58;100.00;101559.75;5056553;28;20029;-74
2023/10/09 04:01:57;;;;;;;75.57;11.57;;;;;;;11.56;100.00;101557.19;5039488;28;20040;-74
2023/10/09 04:04:24;;;;;;;68.25;12.00;;;;;;;11.57;100.00;101556.22;5038915;28;20070;-74
2023/10/09 04:06:51;;;;;;;72.28;11.63;;;;;;;11.55;100.00;101563.59;5038672;28;20121;-74
2023/10/09 04:12:12;;;;;;;55.97;10.77;;;;;;;11.52;100.00;101571.16;5058861;28;20040;-74
2023/10/09 04:15:00;;;;;;;49.67;9.32;;;;;;;11.52;100.00;101573.88;5061078;28;20035;-73
2023/10/09 04:22:49;;;;;;;52.28;9.13;;;;;;;11.09;100.00;101583.75;5075333;28;20029;-74
2023/10/09 04:25:15;;;;;;;50.03;10.20;;;;;;;10.98;100.00;101592.91;5059894;28;20036;-74
2023/10/09 04:27:41;;;;;;;72.07;11.50;;;;;;;10.86;100.00;101595.03;5058205;28;20029;-74
2023/10/09 04:30:07;;;;;;;52.05;10.00;;;;;;;10.72;100.00;101590.22;5041636;28;20052;-73
2023/10/09 04:32:34;;;;;;;56.35;10.38;;;;;;;10.66;100.00;101596.19;5041795;28;20048;-74
2023/10/09 04:37:52;;;;;;;39.10;10.02;;;;;;;10.64;100.00;101604.44;5074971;28;20033;-74
2023/10/09 04:43:09;;;;;;;28.38;8.60;;;;;;;10.54;100.00;101598.31;5074502;28;20391;-74
2023/10/09 04:48:10;;;;;;;35.63;9.23;;;;;;;10.58;100.00;101605.03;5058946;28;20028;-74
2023/10/09 04:50:45;;;;;;;53.63;9.82;;;;;;;10.52;100.00;101598.44;5074213;28;20148;-74
2023/10/09 04:55:53;;;;;;;114.47;13.80;;;;;;;10.76;100.00;101602.34;5058620;28;20033;-74
2023/10/09 04:58:26;;;;;;;103.43;11.68;;;;;;;10.77;100.00;101593.28;5059015;28;20040;-73
2023/10/09 05:03:42;;;;;;;65.50;10.27;;;;;;;10.64;100.00;101592.81;5058153;28;20123;-73
2023/10/09 05:06:21;;;;;;;79.70;10.30;;;;;;;10.48;100.00;101589.03;5060379;28;20056;-73
2023/10/09 05:08:48;;;;;;;69.05;10.63;;;;;;;10.38;100.00;101582.88;5042902;28;20028;-74
2023/10/09 05:14:12;;;;;;;45.15;8.57;;;;;;;10.41;100.00;101597.84;5028655;28;20048;-74
2023/10/09 05:16:53;;;;;;;46.58;9.05;;;;;;;10.37;100.00;101591.91;5040955;28;20033;-74
2023/10/09 05:22:36;;;;;;;38.92;9.25;;;;;;;10.32;100.00;101595.09;5058925;28;20044;-74
2023/10/09 05:24:58;;;;;;;36.00;7.72;;;;;;;10.28;100.00;101600.91;5059889;28;20040;-74
2023/10/09 05:30:26;;;;;;;37.03;7.45;;;;;;;10.32;100.00;101596.94;5073786;28;20488;-74
2023/10/09 05:33:27;;;;;;;36.25;7.97;;;;;;;10.29;100.00;101586.47;5073727;28;20032;-73
2023/10/09 05:36:04;;;;;;;25.85;6.88;;;;;;;10.26;100.00;101590.28;5059891;28;20468;-75
2023/10/09 05:38:30;;;;;;;28.35;6.90;;;;;;;10.29;100.00;101589.16;5073590;28;20040;-73
2023/10/09 05:41:30;;;;;;;49.35;7.82;;;;;;;10.33;100.00;101595.94;5056642;28;20518;-73
2023/10/09 05:46:35;;;;;;;44.75;7.72;;;;;;;10.48;100.00;101609.69;5059290;28;20437;-73
2023/10/09 05:49:09;;;;;;;38.72;7.95;;;;;;;10.50;100.00;101608.50;5057695;28;20382;-75
2023/10/09 05:51:42;;;;;;;55.40;9.07;;;;;;;10.56;100.00;101590.94;5073204;28;20028;-73
2023/10/09 05:58:19;;;;;;;70.40;9.85;;;;;;;10.70;100.00;101578.75;5073038;28;20064;-74
2023/10/09 06:08:04;;;;;;;80.15;9.88;;;;;;;10.67;100.00;101568.31;5072908;28;20383;-75
2023/10/09 06:10:39;;;;;;;60.42;9.57;;;;;;;10.61;100.00;101555.47;5056608;28;20032;-75
2023/10/09 06:13:06;;;;;;;52.42;9.23;;;;;;;10.56;100.00;101558.66;5057705;28;20051;-75
2023/10/09 06:15:51;;;;;;;71.47;10.20;;;;;;;10.51;100.00;101556.44;5023487;28;20032;-75
2023/10/09 06:18:25;;;;;;;86.93;11.38;;;;;;;10.43;100.00;101561.75;5056345;28;20450;-76
2023/10/09 06:24:08;;;;;;;85.60;10.57;;;;;;;10.34;100.00;101560.81;5072938;28;20119;-75
2023/10/09 06:26:37;;;;;;;66.15;8.68;;;;;;;10.36;100.00;101566.03;5044501;28;20094;-77
2023/10/09 06:29:15;;;;;;;72.97;10.45;;;;;;;10.33;100.00;101567.19;5072568;28;20040;-76
2023/10/09 06:32:23;;;;;;;51.33;9.80;;;;;;;10.29;100.00;101570.34;5041113;28;20090;-76
2023/10/09 06:35:14;;;;;;;48.40;8.43;;;;;;;10.15;100.00;101579.75;5060689;28;20379;-73
2023/10/09 06:38:21;;;;;;;57.45;8.85;;;;;;;10.03;100.00;101584.53;5043157;28;20129;-73
2023/10/09 06:43:09;;;;;;;38.17;7.65;;;;;;;9.93;100.00;101575.69;5071988;28;20032;-75
2023/10/09 06:45:45;;;;;;;61.03;8.45;;;;;;;9.86;100.00;101570.06;5072569;28;20036;-75
2023/10/09 06:59:23;;;;;;;35.25;7.38;;;;;;;9.47;100.00;101553.31;5072150;28;20024;-75
2023/10/09 07:07:07;;;;;;;31.05;7.55;;;;;;;9.43;100.00;101581.47;5055680;28;20032;-74
2023/10/09 07:09:42;;;;;;;24.70;7.72;;;;;;;9.52;100.00;101580.56;5056017;28;20115;-76
2023/10/09 07:12:20;;;;;;;33.50;7.78;;;;;;;9.57;100.00;101580.97;5055642;28;20090;-75
2023/10/09 07:20:09;;;;;;;20.77;6.13;;;;;;;9.66;100.00;101588.13;5071367;28;20028;-74
2023/10/09 07:22:56;;;;;;;19.67;5.47;;;;;;;9.69;100.00;101587.84;5072164;28;20121;-74
2023/10/09 07:25:41;;;;;;;23.48;6.15;;;;;;;9.79;100.00;101590.47;5040549;28;20039;-75
2023/10/09 07:28:18;;;;;;;21.08;5.82;;;;;;;9.85;100.00;101594.41;5057792;28;20444;-75
2023/10/09 07:30:47;;;;;;;21.77;6.40;;;;;;;9.90;100.00;101592.09;5071827;28;20505;-75
2023/10/09 07:35:47;;;;;;;28.55;6.50;;;;;;;10.14;100.00;101610.34;5055480;28;20028;-75
2023/10/09 07:38:28;;;;;;;46.20;7.20;;;;;;;10.24;100.00;101610.25;5038824;28;20021;-76
2023/10/09 07:40:55;;;;;;;39.35;6.25;;;;;;;10.38;100.00;101604.38;5055422;28;20111;-75
2023/10/09 07:43:31;;;;;;;26.35;6.75;;;;;;;10.43;100.00;101612.84;5055474;28;20036;-74
2023/10/09 07:48:25;;;;;;;26.60;5.97;;;;;;;10.53;100.00;101599.28;5059430;28;20044;-74
2023/10/09 07:50:57;;;;;;;26.17;5.80;;;;;;;10.60;100.00;101589.59;5042412;28;20033;-75
2023/10/09 07:53:26;;;;;;;28.95;5.82;;;;;;;10.74;100.00;101582.81;5059675;28;20036;-75
2023/10/09 07:55:58;;;;;;;17.58;5.55;;;;;;;10.88;100.00;101584.94;5075596;28;20036;-74
2023/10/09 07:58:27;;;;;;;16.05;5.40;;;;;;;11.02;100.00;101588.91;5059345;28;20032;-75
2023/10/09 08:01:15;;;;;;;25.88;6.00;;;;;;;11.22;100.00;101598.47;5041517;28;20024;-75
2023/10/09 08:03:46;;;;;;;25.05;6.53;;;;;;;11.43;100.00;101590.00;5076573;28;20117;-75
2023/10/09 08:11:59;;;;;;;14.80;4.88;;;;;;;12.17;100.00;101603.75;5058989;28;20093;-76
2023/10/09 08:17:15;;;;;;;13.27;4.97;;;;;;;13.71;100.00;101611.84;5060534;28;20036;-77
2023/10/09 08:19:54;;;;;;;10.30;4.70;;;;;;;13.31;100.00;101607.41;5060314;28;20387;-76
2023/10/09 08:24:56;;;;;;;10.18;4.40;;;;;;;13.34;100.00;101602.53;5075035;28;20056;-76
2023/10/09 08:30:28;;;;;;;7.57;4.28;;;;;;;13.43;100.00;101599.78;5075015;28;20107;-76
2023/10/09 08:32:42;;;;;;;10.32;4.85;;;;;;;13.82;100.00;101589.00;5074634;28;20479;-75
2023/10/09 08:35:29;;;;;;;7.97;4.43;;;;;;;13.84;100.00;101595.91;5058633;28;20041;-76
2023/10/09 08:38:10;;;;;;;6.43;3.85;;;;;;;13.92;100.00;101599.56;5060572;28;20083;-75
2023/10/09 08:40:39;;;;;;;6.97;4.07;;;;;;;13.92;100.00;101604.97;5042608;28;20467;-76
2023/10/09 08:43:25;;;;;;;7.32;4.18;;;;;;;13.96;100.00;101596.34;5058075;28;20039;-76
2023/10/09 08:46:00;;;;;;;11.40;4.38;;;;;;;14.09;100.00;101593.06;5057302;28;20049;-76
2023/10/09 08:48:27;;;;;;;6.55;3.92;;;;;;;14.40;100.00;101605.72;5058753;28;20055;-76
2023/10/09 08:50:54;;;;;;;7.75;4.05;;;;;;;14.84;100.00;101613.16;5041545;28;20112;-76
2023/10/09 08:53:21;;;;;;;5.38;3.53;;;;;;;15.31;100.00;101612.84;5041235;28;20039;-76
2023/10/09 08:55:47;;;;;;;6.63;3.92;;;;;;;15.74;100.00;101604.91;5057595;28;20024;-74
2023/10/09 08:58:20;;;;;;;6.03;3.72;;;;;;;16.11;100.00;101604.94;5057533;28;20025;-74
2023/10/09 09:00:47;;;;;;;4.90;3.35;;;;;;;16.55;100.00;101609.34;5058345;28;20036;-74
2023/10/09 09:03:16;;;;;;;4.35;3.25;;;;;;;16.83;100.00;101612.13;5057832;28;20467;-75
2023/10/09 09:05:46;;;;;;;5.47;3.40;;;;;;;17.28;100.00;101626.25;5057945;28;20103;-75
2023/10/09 09:08:23;;;;;;;5.30;3.78;;;;;;;17.35;100.00;101616.28;5040870;28;20395;-75
2023/10/09 09:10:58;;;;;;;10.57;9.52;;;;;;;17.29;100.00;101617.09;5057332;28;20103;-75
2023/10/09 09:13:26;;;;;;;9.68;7.00;;;;;;;17.02;100.00;101619.63;5041266;28;20028;-76
2023/10/09 09:15:55;;;;;;;11.98;6.40;;;;;;;16.84;100.00;101619.25;5041118;28;20427;-75
2023/10/09 09:18:22;;;;;;;7.40;4.60;;;;;;;16.55;100.00;101617.50;5057638;28;20051;-74
2023/10/09 09:20:53;;;;;;;6.38;4.18;;;;;;;16.36;100.00;101621.72;5056629;28;20029;-75
2023/10/09 09:23:23;;;;;;;7.95;4.90;;;;;;;16.71;100.00;101611.81;5073192;28;20039;-76
2023/10/09 09:25:58;;;;;;;7.30;5.10;;;;;;;17.28;100.00;101615.38;5056112;28;20024;-77
2023/10/09 09:28:26;;;;;;;5.82;3.90;;;;;;;17.45;100.00;101621.34;5057693;28;20082;-75
2023/10/09 09:30:54;;;;;;;7.05;4.35;;;;;;;17.27;100.00;101619.16;5040830;28;20031;-75
2023/10/09 09:33:30;;;;;;;5.40;4.07;;;;;;;16.96;100.00;101622.25;5040725;28;20040;-75
2023/10/09 09:36:02;;;;;;;10.27;5.60;;;;;;;16.47;100.00;101622.03;5041436;28;20083;-75
2023/10/09 09:38:28;;;;;;;9.38;5.63;;;;;;;16.10;100.00;101614.94;5057103;28;20111;-74
2023/10/09 09:40:57;;;;;;;8.98;5.03;;;;;;;15.91;100.00;101616.41;5040200;28;20495;-75
2023/10/09 09:43:25;;;;;;;9.25;4.40;;;;;;;15.70;100.00;101622.59;5056990;28;20020;-75
2023/10/09 09:45:53;;;;;;;7.38;5.50;;;;;;;15.85;100.00;101616.31;5057225;28;20040;-74
2023/10/09 09:48:19;;;;;;;10.45;5.65;;;;;;;16.27;100.00;101612.81;5073348;28;20029;-75
2023/10/09 09:50:46;;;;;;;12.13;6.10;;;;;;;16.57;100.00;101619.00;5056730;28;20032;-75
2023/10/09 09:53:16;;;;;;;24.95;6.20;;;;;;;16.54;100.00;101621.22;5056913;28;20039;-75
2023/10/09 09:55:57;;;;;;;17.67;5.55;;;;;;;16.53;100.00;101625.81;5040584;28;20029;-76
2023/10/09 09:58:27;;;;;;;12.05;6.88;;;;;;;16.70;100.00;101621.81;5072691;28;20073;-76
2023/10/09 10:00:56;;;;;;;36.72;8.05;;;;;;;17.03;100.00;101623.16;5072373;28;20103;-74
2023/10/09 10:03:29;;;;;;;19.08;7.70;;;;;;;17.28;100.00;101623.53;5040285;28;20086;-75
2023/10/09 10:05:56;;;;;;;11.68;6.32;;;;;;;17.16;100.00;101619.72;5056187;28;20040;-75
2023/10/09 10:08:31;;;;;;;29.08;9.32;;;;;;;16.87;100.00;101621.56;5072210;28;20027;-75
2023/10/09 10:11:06;;;;;;;39.60;7.53;;;;;;;16.52;100.00;101621.44;5057632;28;20119;-74
2023/10/09 10:13:40;;;;;;;24.65;5.07;;;;;;;16.31;100.00;101619.56;5040927;28;20089;-75
2023/10/09 10:16:20;;;;;;;25.25;5.65;;;;;;;16.30;100.00;101611.59;5073995;28;20024;-74
2023/10/09 10:19:30;;;;;;;20.52;4.70;;;;;;;16.42;100.00;101615.50;5057804;28;20056;-74
2023/10/09 10:21:58;;;;;;;14.80;4.43;;;;;;;16.88;100.00;101609.66;5069747;28;20036;-74
2023/10/09 10:24:51;;;;;;;5.60;3.90;;;;;;;16.79;100.00;101605.41;5057511;28;20032;-75
2023/10/09 10:27:58;;;;;;;5.93;4.25;;;;;;;16.79;100.00;101597.28;5071906;28;20032;-75
2023/10/09 10:30:13;;;;;;;5.47;4.13;;;;;;;17.37;100.00;101600.59;5071103;28;20086;-75
2023/10/09 10:33:22;;;;;;;5.53;4.30;;;;;;;17.39;100.00;101589.53;5055875;28;20086;-75
2023/10/09 10:35:46;;;;;;;8.88;4.32;;;;;;;17.53;100.00;101594.84;5058553;28;20071;-74
2023/10/09 10:38:39;;;;;;;5.47;4.13;;;;;;;17.56;100.00;101597.16;5023320;28;20063;-75
2023/10/09 10:41:13;;;;;;;5.85;4.53;;;;;;;17.61;100.00;101598.44;5057464;28;20056;-76
2023/10/09 10:44:12;;;;;;;10.40;4.95;;;;;;;17.25;100.00;101589.47;5057939;28;20032;-75
2023/10/09 10:46:44;;;;;;;5.35;4.43;;;;;;;17.91;100.00;101580.78;5057728;28;20037;-75
2023/10/09 10:49:36;;;;;;;7.65;4.90;;;;;;;18.82;100.00;101583.06;5057900;28;20032;-74
2023/10/09 10:52:17;;;;;;;6.25;4.70;;;;;;;19.21;100.00;101583.19;5041170;28;20421;-75
2023/10/09 10:55:17;;;;;;;6.03;4.75;;;;;;;19.32;100.00;101590.75;5054327;28;20364;-75
2023/10/09 10:58:00;;;;;;;5.28;4.28;;;;;;;19.15;100.00;101584.91;5043020;28;20033;-75
2023/10/09 11:03:55;;;;;;;6.30;4.82;;;;;;;18.33;100.00;101592.41;5057990;28;20028;-75
2023/10/09 11:06:17;;;;;;;7.60;5.18;;;;;;;18.27;100.00;101598.69;5056920;28;20089;-75
2023/10/09 11:09:09;;;;;;;6.50;5.03;;;;;;;18.41;100.00;101592.22;5058826;28;20035;-74
2023/10/09 11:11:46;;;;;;;7.50;5.15;;;;;;;18.70;100.00;101590.16;5057344;28;20036;-75
2023/10/09 11:14:23;;;;;;;8.10;5.75;;;;;;;18.67;100.00;101588.69;5056866;28;20067;-74
2023/10/09 11:16:57;;;;;;;6.82;5.38;;;;;;;18.76;100.00;101583.03;5057343;28;20463;-74
2023/10/09 11:19:32;;;;;;;6.10;5.50;;;;;;;19.07;100.00;101582.41;5056380;28;20025;-74
2023/10/09 11:23:05;;;;;;;8.52;6.30;;;;;;;19.21;100.00;101581.34;5060609;28;20037;-75
2023/10/09 11:25:00;;;;;;;6.80;5.43;;;;;;;19.18;100.00;101576.28;5062220;28;20051;-74
2023/10/09 11:27:32;;;;;;;8.07;5.68;;;;;;;19.67;100.00;101574.91;5044555;28;20029;-75
2023/10/09 11:30:05;;;;;;;10.07;6.47;;;;;;;19.93;100.00;101575.84;5043818;28;20056;-75
2023/10/09 11:32:32;;;;;;;7.82;5.60;;;;;;;19.98;100.00;101574.16;5060377;28;20520;-75
2023/10/09 11:35:21;;;;;;;10.13;6.10;;;;;;;19.63;100.00;101565.44;5075920;28;20036;-75
2023/10/09 11:37:56;;;;;;;8.20;6.03;;;;;;;19.43;100.00;101570.16;5075734;28;20028;-74
2023/10/09 11:40:49;;;;;;;7.45;5.68;;;;;;;19.44;100.00;101569.09;5075765;28;20551;-74
2023/10/09 11:43:15;;;;;;;10.52;6.50;;;;;;;19.40;100.00;101556.97;5047718;28;20037;-74
2023/10/09 11:45:54;;;;;;;8.48;6.32;;;;;;;19.60;100.00;101549.50;5042969;28;20483;-74
2023/10/09 11:50:56;;;;;;;8.70;7.32;;;;;;;19.47;100.00;101557.75;5075790;28;20043;-73
2023/10/09 11:55:52;;;;;;;8.32;6.82;;;;;;;20.20;100.00;101550.06;5075244;28;20028;-74
2023/10/09 11:58:24;;;;;;;9.25;6.82;;;;;;;20.48;100.00;101546.09;5059082;28;20058;-75
2023/10/09 12:00:56;;;;;;;8.85;6.93;;;;;;;20.54;100.00;101541.66;5058770;28;20032;-74
2023/10/09 12:03:32;;;;;;;12.25;7.25;;;;;;;20.42;100.00;101538.75;5058710;28;20038;-73
2023/10/09 12:06:05;;;;;;;7.18;6.15;;;;;;;19.98;100.00;101537.81;5059559;28;20106;-73
2023/10/09 12:08:32;;;;;;;9.77;6.68;;;;;;;19.81;100.00;101536.66;5058744;28;20386;-73
2023/10/09 12:10:58;;;;;;;9.93;6.40;;;;;;;19.81;100.00;101540.22;5025725;28;20044;-74
2023/10/09 12:13:25;;;;;;;9.38;7.15;;;;;;;19.82;100.00;101530.13;5041689;28;20036;-74
2023/10/09 12:15:54;;;;;;;7.72;6.03;;;;;;;19.96;100.00;101527.13;5025731;28;20135;-74
2023/10/09 12:18:24;;;;;;;9.15;6.40;;;;;;;20.01;100.00;101522.91;5058928;28;20032;-74
2023/10/09 12:21:02;;;;;;;11.80;6.20;;;;;;;20.23;100.00;101520.66;5058262;28;20032;-75
2023/10/09 12:23:28;;;;;;;7.63;6.30;;;;;;;20.61;100.00;101510.50;5043396;28;20386;-74
2023/10/09 12:25:56;;;;;;;10.32;6.50;;;;;;;20.70;100.00;101508.31;5058556;28;20041;-74
2023/10/09 12:28:23;;;;;;;7.68;5.78;;;;;;;20.76;100.00;101506.56;5074773;28;20494;-74
2023/10/09 12:30:50;;;;;;;8.50;5.90;;;;;;;21.02;100.00;101506.28;5024828;28;20105;-74
2023/10/09 12:33:18;;;;;;;7.28;5.30;;;;;;;21.28;100.00;101513.34;5058615;28;20032;-74
2023/10/09 12:35:47;;;;;;;9.60;6.57;;;;;;;21.49;100.00;101511.25;5041842;28;20043;-74
2023/10/09 12:38:18;;;;;;;11.80;6.28;;;;;;;21.62;100.00;101507.47;5042851;28;20039;-74
2023/10/09 12:40:50;;;;;;;8.05;5.22;;;;;;;21.84;100.00;101502.34;5058013;28;20036;-74
2023/10/09 12:43:22;;;;;;;9.57;6.07;;;;;;;22.06;100.00;101497.16;5074679;28;20031;-74
2023/10/09 12:45:48;;;;;;;12.43;7.40;;;;;;;22.31;100.00;101492.38;5058580;28;20029;-74
2023/10/09 12:48:14;;;;;;;7.30;5.70;;;;;;;22.53;100.00;101481.66;5058054;28;20474;-73
2023/10/09 12:50:46;;;;;;;9.88;5.30;;;;;;;22.67;100.00;101481.41;5074382;28;20036;-74
2023/10/09 12:53:17;;;;;;;10.50;5.18;;;;;;;22.96;100.00;101483.22;5042262;28;20040;-73
2023/10/09 12:55:43;;;;;;;10.57;4.65;;;;;;;23.00;100.00;101467.13;5058758;28;20025;-74
2023/10/09 12:58:14;;;;;;;9.57;4.50;;;;;;;23.32;100.00;101464.78;5057809;28;20024;-73
2023/10/09 13:00:44;;;;;;;6.95;4.30;;;;;;;23.67;100.00;101466.53;5057772;28;20058;-73
2023/10/09 13:03:17;;;;;;;7.72;4.20;;;;;;;23.88;100.00;101457.63;5074363;28;20131;-73
2023/10/09 13:05:55;;;;;;;7.97;3.85;;;;;;;23.79;100.00;101456.38;5042955;28;20040;-74
2023/10/09 13:08:31;;;;;;;5.90;4.05;;;;;;;24.07;93.87;101458.22;5036890;28;20036;-73
2023/10/09 13:11:00;;;;;;;6.25;3.65;;;;;;;24.35;91.94;101461.97;5073825;28;20112;-74
2023/10/09 13:13:39;;;;;;;8.80;4.85;;;;;;;24.57;87.00;101460.13;5057899;28;20025;-74
2023/10/09 13:16:06;;;;;;;8.38;5.28;;;;;;;24.66;83.88;101456.94;5027798;28;20041;-74
2023/10/09 13:18:32;;;;;;;8.68;3.85;;;;;;;24.74;80.55;101451.00;5040676;28;20072;-74
2023/10/09 13:21:03;;;;;;;8.70;3.75;;;;;;;24.49;80.22;101446.81;5040472;28;20102;-74
2023/10/09 13:23:46;;;;;;;8.07;3.80;;;;;;;24.57;79.66;101451.06;5057618;28;20032;-74
2023/10/09 13:26:21;;;;;;;9.13;4.07;;;;;;;25.13;75.03;101450.97;5059112;28;20545;-74
2023/10/09 13:28:52;;;;;;;10.00;4.10;;;;;;;25.40;70.21;101437.28;5046400;28;20174;-75
2023/10/09 13:31:20;;;;;;;6.82;3.65;;;;;;;25.48;64.12;101439.56;5040333;28;20044;-75
2023/10/09 13:33:47;;;;;;;7.35;3.95;;;;;;;25.60;65.52;101434.75;5057287;28;20033;-74
2023/10/09 13:36:19;;;;;;;8.55;4.03;;;;;;;25.68;67.45;101438.97;5040044;28;20391;-74